sensor_id;sensor_type;location;lat;lon;timestamp;P1;durP1;ratioP1;P2;durP2;ratioP2
25327;SDS011;13279;51.300;12.394;2022-11-12T00:01:02;13.13;;;4.83;;
25327;SDS011;13279;51.300;12.394;2022-11-12T00:03:47;10.87;;;5.50;;
25327;SDS011;13279;51.300;12.394;2022-11-12T00:06:33;10.53;;;5.57;;
25327;SDS011;13279;51.300;12.394;2022-11-12T00:09:19;9.97;;;5.37;;
25327;SDS011;13279;51.300;12.394;2022-11-12T00:12:06;11.27;;;4.83;;
25327;SDS011;13279;51.300;12.394;2022-11-12T00:14:53;7.80;;;5.70;;
25327;SDS011;13279;51.300;12.394;2022-11-12T00:17:39;9.97;;;4.80;;
25327;SDS011;13279;51.300;12.394;2022-11-12T00:20:26;10.20;;;4.80;;
25327;SDS011;13279;51.300;12.394;2022-11-12T00:23:12;9.67;;;5.23;;
25327;SDS011;13279;51.300;12.394;2022-11-12T00:25:58;8.53;;;5.47;;
25327;SDS011;13279;51.300;12.394;2022-11-12T00:28:45;12.23;;;5.77;;
25327;SDS011;13279;51.300;12.394;2022-11-12T00:31:32;7.07;;;5.37;;
25327;SDS011;13279;51.300;12.394;2022-11-12T00:34:18;11.83;;;4.97;;
25327;SDS011;13279;51.300;12.394;2022-11-12T00:37:04;11.00;;;5.40;;
25327;SDS011;13279;51.300;12.394;2022-11-12T00:39:51;12.07;;;6.07;;
25327;SDS011;13279;51.300;12.394;2022-11-12T00:42:37;13.87;;;6.80;;
25327;SDS011;13279;51.300;12.394;2022-11-12T00:45:23;12.13;;;5.70;;
25327;SDS011;13279;51.300;12.394;2022-11-12T00:48:11;9.23;;;4.70;;
25327;SDS011;13279;51.300;12.394;2022-11-12T00:51:00;10.73;;;6.10;;
25327;SDS011;13279;51.300;12.394;2022-11-12T00:53:47;8.97;;;5.53;;
25327;SDS011;13279;51.300;12.394;2022-11-12T00:56:34;11.03;;;6.33;;
25327;SDS011;13279;51.300;12.394;2022-11-12T00:59:20;11.33;;;5.00;;
25327;SDS011;13279;51.300;12.394;2022-11-12T01:02:06;9.20;;;5.50;;
25327;SDS011;13279;51.300;12.394;2022-11-12T01:04:54;15.23;;;5.40;;
25327;SDS011;13279;51.300;12.394;2022-11-12T01:07:41;10.17;;;5.23;;
25327;SDS011;13279;51.300;12.394;2022-11-12T01:10:27;9.73;;;5.20;;
25327;SDS011;13279;51.300;12.394;2022-11-12T01:13:14;8.27;;;5.57;;
25327;SDS011;13279;51.300;12.394;2022-11-12T01:16:03;15.67;;;6.23;;
25327;SDS011;13279;51.300;12.394;2022-11-12T01:18:51;13.57;;;5.63;;
25327;SDS011;13279;51.300;12.394;2022-11-12T01:21:40;8.03;;;5.47;;
25327;SDS011;13279;51.300;12.394;2022-11-12T01:24:28;8.93;;;5.87;;
25327;SDS011;13279;51.300;12.394;2022-11-12T01:27:14;9.17;;;5.30;;
25327;SDS011;13279;51.300;12.394;2022-11-12T01:30:00;9.80;;;5.43;;
25327;SDS011;13279;51.300;12.394;2022-11-12T01:32:47;9.97;;;6.33;;
25327;SDS011;13279;51.300;12.394;2022-11-12T01:35:33;11.90;;;5.80;;
25327;SDS011;13279;51.300;12.394;2022-11-12T01:38:20;10.83;;;5.87;;
25327;SDS011;13279;51.300;12.394;2022-11-12T01:41:06;11.67;;;5.83;;
25327;SDS011;13279;51.300;12.394;2022-11-12T01:44:07;11.00;;;5.93;;
25327;SDS011;13279;51.300;12.394;2022-11-12T01:46:57;11.77;;;6.60;;
25327;SDS011;13279;51.300;12.394;2022-11-12T01:49:48;10.53;;;5.90;;
25327;SDS011;13279;51.300;12.394;2022-11-12T01:52:40;11.27;;;6.37;;
25327;SDS011;13279;51.300;12.394;2022-11-12T01:55:33;14.07;;;7.30;;
25327;SDS011;13279;51.300;12.394;2022-11-12T01:58:23;11.63;;;6.30;;
25327;SDS011;13279;51.300;12.394;2022-11-12T02:01:13;13.77;;;7.73;;
25327;SDS011;13279;51.300;12.394;2022-11-12T02:03:59;14.60;;;6.67;;
25327;SDS011;13279;51.300;12.394;2022-11-12T02:06:45;10.37;;;6.27;;
25327;SDS011;13279;51.300;12.394;2022-11-12T02:09:35;11.13;;;6.97;;
25327;SDS011;13279;51.300;12.394;2022-11-12T02:12:22;8.97;;;6.27;;
25327;SDS011;13279;51.300;12.394;2022-11-12T02:15:34;13.00;;;7.23;;
25327;SDS011;13279;51.300;12.394;2022-11-12T02:18:22;14.97;;;7.17;;
25327;SDS011;13279;51.300;12.394;2022-11-12T02:21:08;18.73;;;6.77;;
25327;SDS011;13279;51.300;12.394;2022-11-12T02:23:59;13.73;;;7.37;;
25327;SDS011;13279;51.300;12.394;2022-11-12T02:26:47;13.53;;;7.23;;
25327;SDS011;13279;51.300;12.394;2022-11-12T02:29:37;13.43;;;7.20;;
25327;SDS011;13279;51.300;12.394;2022-11-12T02:32:29;13.30;;;7.73;;
25327;SDS011;13279;51.300;12.394;2022-11-12T02:35:15;10.83;;;6.67;;
25327;SDS011;13279;51.300;12.394;2022-11-12T02:38:01;10.03;;;7.07;;
25327;SDS011;13279;51.300;12.394;2022-11-12T02:40:49;15.33;;;6.40;;
25327;SDS011;13279;51.300;12.394;2022-11-12T02:43:36;14.87;;;7.23;;
25327;SDS011;13279;51.300;12.394;2022-11-12T02:46:22;13.73;;;6.97;;
25327;SDS011;13279;51.300;12.394;2022-11-12T02:49:09;10.37;;;6.90;;
25327;SDS011;13279;51.300;12.394;2022-11-12T02:51:55;12.07;;;6.93;;
25327;SDS011;13279;51.300;12.394;2022-11-12T02:54:41;17.03;;;7.20;;
25327;SDS011;13279;51.300;12.394;2022-11-12T02:57:28;11.70;;;7.37;;
25327;SDS011;13279;51.300;12.394;2022-11-12T03:00:15;13.10;;;6.43;;
25327;SDS011;13279;51.300;12.394;2022-11-12T03:03:01;14.73;;;7.40;;
25327;SDS011;13279;51.300;12.394;2022-11-12T03:05:53;12.10;;;6.83;;
25327;SDS011;13279;51.300;12.394;2022-11-12T03:08:41;13.43;;;7.80;;
25327;SDS011;13279;51.300;12.394;2022-11-12T03:11:27;12.87;;;7.23;;
25327;SDS011;13279;51.300;12.394;2022-11-12T03:14:14;14.73;;;6.83;;
25327;SDS011;13279;51.300;12.394;2022-11-12T03:17:00;13.37;;;6.80;;
25327;SDS011;13279;51.300;12.394;2022-11-12T03:19:47;16.13;;;7.33;;
25327;SDS011;13279;51.300;12.394;2022-11-12T03:22:33;10.90;;;7.13;;
25327;SDS011;13279;51.300;12.394;2022-11-12T03:25:19;12.60;;;7.27;;
25327;SDS011;13279;51.300;12.394;2022-11-12T03:28:06;12.20;;;6.37;;
25327;SDS011;13279;51.300;12.394;2022-11-12T03:30:57;10.20;;;6.70;;
25327;SDS011;13279;51.300;12.394;2022-11-12T03:33:44;12.23;;;6.97;;
25327;SDS011;13279;51.300;12.394;2022-11-12T03:36:30;14.67;;;8.13;;
25327;SDS011;13279;51.300;12.394;2022-11-12T03:39:16;16.17;;;7.40;;
25327;SDS011;13279;51.300;12.394;2022-11-12T03:42:03;18.43;;;7.93;;
25327;SDS011;13279;51.300;12.394;2022-11-12T03:44:49;12.33;;;7.40;;
25327;SDS011;13279;51.300;12.394;2022-11-12T03:47:38;12.43;;;7.70;;
25327;SDS011;13279;51.300;12.394;2022-11-12T03:50:27;11.30;;;6.97;;
25327;SDS011;13279;51.300;12.394;2022-11-12T03:53:14;11.60;;;6.67;;
25327;SDS011;13279;51.300;12.394;2022-11-12T03:56:00;13.50;;;7.67;;
25327;SDS011;13279;51.300;12.394;2022-11-12T03:58:46;17.23;;;7.50;;
25327;SDS011;13279;51.300;12.394;2022-11-12T04:01:32;12.10;;;7.87;;
25327;SDS011;13279;51.300;12.394;2022-11-12T04:04:19;11.77;;;7.53;;
25327;SDS011;13279;51.300;12.394;2022-11-12T04:07:07;18.97;;;7.70;;
25327;SDS011;13279;51.300;12.394;2022-11-12T04:10:11;11.83;;;7.50;;
25327;SDS011;13279;51.300;12.394;2022-11-12T04:12:57;17.07;;;7.67;;
25327;SDS011;13279;51.300;12.394;2022-11-12T04:15:58;22.70;;;7.27;;
25327;SDS011;13279;51.300;12.394;2022-11-12T04:19:03;12.87;;;7.67;;
25327;SDS011;13279;51.300;12.394;2022-11-12T04:22:09;12.27;;;7.57;;
25327;SDS011;13279;51.300;12.394;2022-11-12T04:24:56;11.63;;;7.50;;
25327;SDS011;13279;51.300;12.394;2022-11-12T04:27:59;15.57;;;8.67;;
25327;SDS011;13279;51.300;12.394;2022-11-12T04:30:46;12.30;;;7.07;;
25327;SDS011;13279;51.300;12.394;2022-11-12T04:33:31;15.30;;;8.03;;
25327;SDS011;13279;51.300;12.394;2022-11-12T04:36:17;11.53;;;7.37;;
25327;SDS011;13279;51.300;12.394;2022-11-12T04:39:04;13.20;;;7.70;;
25327;SDS011;13279;51.300;12.394;2022-11-12T04:41:50;16.80;;;8.40;;
25327;SDS011;13279;51.300;12.394;2022-11-12T04:44:54;13.00;;;7.53;;
25327;SDS011;13279;51.300;12.394;2022-11-12T04:47:47;12.20;;;7.43;;
25327;SDS011;13279;51.300;12.394;2022-11-12T04:50:33;10.00;;;7.50;;
25327;SDS011;13279;51.300;12.394;2022-11-12T04:53:20;10.40;;;7.43;;
25327;SDS011;13279;51.300;12.394;2022-11-12T04:56:08;11.53;;;8.20;;
25327;SDS011;13279;51.300;12.394;2022-11-12T04:58:54;14.33;;;8.60;;
25327;SDS011;13279;51.300;12.394;2022-11-12T05:01:40;12.70;;;7.23;;
25327;SDS011;13279;51.300;12.394;2022-11-12T05:04:26;11.37;;;6.80;;
25327;SDS011;13279;51.300;12.394;2022-11-12T05:07:12;12.00;;;8.03;;
25327;SDS011;13279;51.300;12.394;2022-11-12T05:09:59;13.07;;;8.50;;
25327;SDS011;13279;51.300;12.394;2022-11-12T05:12:46;13.33;;;7.73;;
25327;SDS011;13279;51.300;12.394;2022-11-12T05:15:32;15.57;;;8.47;;
25327;SDS011;13279;51.300;12.394;2022-11-12T05:18:18;17.93;;;8.60;;
25327;SDS011;13279;51.300;12.394;2022-11-12T05:21:04;12.50;;;7.80;;
25327;SDS011;13279;51.300;12.394;2022-11-12T05:24:05;17.03;;;8.27;;
25327;SDS011;13279;51.300;12.394;2022-11-12T05:26:51;10.50;;;7.30;;
25327;SDS011;13279;51.300;12.394;2022-11-12T05:29:39;12.30;;;8.27;;
25327;SDS011;13279;51.300;12.394;2022-11-12T05:32:26;11.90;;;7.97;;
25327;SDS011;13279;51.300;12.394;2022-11-12T05:35:12;19.40;;;7.87;;
25327;SDS011;13279;51.300;12.394;2022-11-12T05:37:58;14.63;;;8.50;;
25327;SDS011;13279;51.300;12.394;2022-11-12T05:40:45;14.73;;;8.50;;
25327;SDS011;13279;51.300;12.394;2022-11-12T05:43:30;15.00;;;7.70;;
25327;SDS011;13279;51.300;12.394;2022-11-12T05:46:18;14.90;;;8.93;;
25327;SDS011;13279;51.300;12.394;2022-11-12T05:49:04;16.60;;;7.63;;
25327;SDS011;13279;51.300;12.394;2022-11-12T05:51:50;16.03;;;8.10;;
25327;SDS011;13279;51.300;12.394;2022-11-12T05:54:37;19.77;;;9.13;;
25327;SDS011;13279;51.300;12.394;2022-11-12T05:57:23;12.90;;;8.30;;
25327;SDS011;13279;51.300;12.394;2022-11-12T06:00:12;11.70;;;8.20;;
25327;SDS011;13279;51.300;12.394;2022-11-12T06:03:00;12.17;;;8.63;;
25327;SDS011;13279;51.300;12.394;2022-11-12T06:05:46;22.50;;;8.63;;
25327;SDS011;13279;51.300;12.394;2022-11-12T06:08:32;15.53;;;8.73;;
25327;SDS011;13279;51.300;12.394;2022-11-12T06:11:18;13.27;;;8.53;;
25327;SDS011;13279;51.300;12.394;2022-11-12T06:14:05;15.93;;;9.27;;
25327;SDS011;13279;51.300;12.394;2022-11-12T06:16:51;13.67;;;8.53;;
25327;SDS011;13279;51.300;12.394;2022-11-12T06:19:39;13.60;;;8.37;;
25327;SDS011;13279;51.300;12.394;2022-11-12T06:22:26;15.47;;;8.57;;
25327;SDS011;13279;51.300;12.394;2022-11-12T06:25:13;13.37;;;8.83;;
25327;SDS011;13279;51.300;12.394;2022-11-12T06:27:59;13.57;;;8.57;;
25327;SDS011;13279;51.300;12.394;2022-11-12T06:30:46;15.70;;;9.30;;
25327;SDS011;13279;51.300;12.394;2022-11-12T06:33:32;23.10;;;9.70;;
25327;SDS011;13279;51.300;12.394;2022-11-12T06:36:20;14.80;;;8.87;;
25327;SDS011;13279;51.300;12.394;2022-11-12T06:39:09;17.33;;;9.80;;
25327;SDS011;13279;51.300;12.394;2022-11-12T06:41:56;16.73;;;8.93;;
25327;SDS011;13279;51.300;12.394;2022-11-12T06:44:43;14.03;;;8.57;;
25327;SDS011;13279;51.300;12.394;2022-11-12T06:47:29;15.90;;;9.10;;
25327;SDS011;13279;51.300;12.394;2022-11-12T06:50:16;17.30;;;9.57;;
25327;SDS011;13279;51.300;12.394;2022-11-12T06:53:04;17.00;;;9.23;;
25327;SDS011;13279;51.300;12.394;2022-11-12T06:55:50;15.40;;;9.60;;
25327;SDS011;13279;51.300;12.394;2022-11-12T06:58:36;15.77;;;9.40;;
25327;SDS011;13279;51.300;12.394;2022-11-12T07:01:23;15.13;;;8.87;;
25327;SDS011;13279;51.300;12.394;2022-11-12T07:04:09;17.77;;;9.47;;
25327;SDS011;13279;51.300;12.394;2022-11-12T07:06:56;19.67;;;9.67;;
25327;SDS011;13279;51.300;12.394;2022-11-12T07:09:43;23.37;;;10.30;;
25327;SDS011;13279;51.300;12.394;2022-11-12T07:12:30;14.27;;;9.73;;
25327;SDS011;13279;51.300;12.394;2022-11-12T07:15:16;15.67;;;9.53;;
25327;SDS011;13279;51.300;12.394;2022-11-12T07:18:02;17.50;;;8.87;;
25327;SDS011;13279;51.300;12.394;2022-11-12T07:20:48;14.47;;;9.23;;
25327;SDS011;13279;51.300;12.394;2022-11-12T07:23:35;15.00;;;9.30;;
25327;SDS011;13279;51.300;12.394;2022-11-12T07:26:24;18.13;;;10.17;;
25327;SDS011;13279;51.300;12.394;2022-11-12T07:29:11;18.90;;;9.67;;
25327;SDS011;13279;51.300;12.394;2022-11-12T07:31:58;14.97;;;9.00;;
25327;SDS011;13279;51.300;12.394;2022-11-12T07:34:44;24.90;;;10.80;;
25327;SDS011;13279;51.300;12.394;2022-11-12T07:37:30;20.67;;;10.27;;
25327;SDS011;13279;51.300;12.394;2022-11-12T07:40:18;13.43;;;8.13;;
25327;SDS011;13279;51.300;12.394;2022-11-12T07:43:08;12.07;;;8.07;;
25327;SDS011;13279;51.300;12.394;2022-11-12T07:45:56;16.00;;;8.23;;
25327;SDS011;13279;51.300;12.394;2022-11-12T07:48:43;17.50;;;8.00;;
25327;SDS011;13279;51.300;12.394;2022-11-12T07:51:30;13.13;;;7.67;;
25327;SDS011;13279;51.300;12.394;2022-11-12T07:54:16;9.50;;;7.13;;
25327;SDS011;13279;51.300;12.394;2022-11-12T07:57:02;9.83;;;6.90;;
25327;SDS011;13279;51.300;12.394;2022-11-12T07:59:50;11.93;;;5.93;;
25327;SDS011;13279;51.300;12.394;2022-11-12T08:02:37;12.30;;;6.57;;
25327;SDS011;13279;51.300;12.394;2022-11-12T08:05:23;11.20;;;6.57;;
25327;SDS011;13279;51.300;12.394;2022-11-12T08:08:09;10.50;;;6.67;;
25327;SDS011;13279;51.300;12.394;2022-11-12T08:10:56;9.57;;;6.50;;
25327;SDS011;13279;51.300;12.394;2022-11-12T08:13:46;10.13;;;7.13;;
25327;SDS011;13279;51.300;12.394;2022-11-12T08:16:33;13.23;;;7.00;;
25327;SDS011;13279;51.300;12.394;2022-11-12T08:19:20;13.23;;;6.83;;
25327;SDS011;13279;51.300;12.394;2022-11-12T08:22:06;10.20;;;6.87;;
25327;SDS011;13279;51.300;12.394;2022-11-12T08:24:52;7.37;;;6.43;;
25327;SDS011;13279;51.300;12.394;2022-11-12T08:27:38;10.77;;;6.80;;
25327;SDS011;13279;51.300;12.394;2022-11-12T08:30:25;9.73;;;5.83;;
25327;SDS011;13279;51.300;12.394;2022-11-12T08:33:13;11.93;;;5.93;;
25327;SDS011;13279;51.300;12.394;2022-11-12T08:36:01;12.07;;;6.33;;
25327;SDS011;13279;51.300;12.394;2022-11-12T08:38:49;10.33;;;6.33;;
25327;SDS011;13279;51.300;12.394;2022-11-12T08:41:37;8.87;;;5.80;;
25327;SDS011;13279;51.300;12.394;2022-11-12T08:44:24;11.53;;;6.50;;
25327;SDS011;13279;51.300;12.394;2022-11-12T08:47:13;8.07;;;5.70;;
25327;SDS011;13279;51.300;12.394;2022-11-12T08:50:02;9.27;;;5.37;;
25327;SDS011;13279;51.300;12.394;2022-11-12T08:52:58;10.03;;;5.50;;
25327;SDS011;13279;51.300;12.394;2022-11-12T08:55:49;6.80;;;5.73;;
25327;SDS011;13279;51.300;12.394;2022-11-12T08:58:41;8.00;;;5.13;;
25327;SDS011;13279;51.300;12.394;2022-11-12T09:01:28;7.10;;;5.53;;
25327;SDS011;13279;51.300;12.394;2022-11-12T09:04:15;10.43;;;5.83;;
25327;SDS011;13279;51.300;12.394;2022-11-12T09:07:03;8.17;;;5.60;;
25327;SDS011;13279;51.300;12.394;2022-11-12T09:09:49;11.17;;;5.17;;
25327;SDS011;13279;51.300;12.394;2022-11-12T09:12:35;9.57;;;4.80;;
25327;SDS011;13279;51.300;12.394;2022-11-12T09:15:21;11.13;;;4.87;;
25327;SDS011;13279;51.300;12.394;2022-11-12T09:18:10;7.00;;;4.70;;
25327;SDS011;13279;51.300;12.394;2022-11-12T09:21:00;7.70;;;4.93;;
25327;SDS011;13279;51.300;12.394;2022-11-12T09:23:50;8.87;;;5.10;;
25327;SDS011;13279;51.300;12.394;2022-11-12T09:26:38;6.63;;;4.60;;
25327;SDS011;13279;51.300;12.394;2022-11-12T09:29:24;7.30;;;5.10;;
25327;SDS011;13279;51.300;12.394;2022-11-12T09:32:13;9.00;;;5.70;;
25327;SDS011;13279;51.300;12.394;2022-11-12T09:35:12;7.97;;;4.90;;
25327;SDS011;13279;51.300;12.394;2022-11-12T09:37:59;7.87;;;5.03;;
25327;SDS011;13279;51.300;12.394;2022-11-12T09:44:05;6.63;;;4.93;;
25327;SDS011;13279;51.300;12.394;2022-11-12T09:46:56;11.37;;;4.57;;
25327;SDS011;13279;51.300;12.394;2022-11-12T09:49:48;6.50;;;4.87;;
25327;SDS011;13279;51.300;12.394;2022-11-12T09:52:43;5.80;;;4.00;;
25327;SDS011;13279;51.300;12.394;2022-11-12T09:55:37;5.27;;;3.83;;
25327;SDS011;13279;51.300;12.394;2022-11-12T10:01:56;6.40;;;3.90;;
25327;SDS011;13279;51.300;12.394;2022-11-12T10:04:53;6.17;;;3.60;;
25327;SDS011;13279;51.300;12.394;2022-11-12T10:07:50;8.57;;;3.87;;
25327;SDS011;13279;51.300;12.394;2022-11-12T10:10:47;10.43;;;3.23;;
25327;SDS011;13279;51.300;12.394;2022-11-12T10:13:38;7.73;;;3.50;;
25327;SDS011;13279;51.300;12.394;2022-11-12T10:16:40;7.03;;;3.70;;
25327;SDS011;13279;51.300;12.394;2022-11-12T10:19:45;8.30;;;3.87;;
25327;SDS011;13279;51.300;12.394;2022-11-12T10:22:48;7.27;;;3.90;;
25327;SDS011;13279;51.300;12.394;2022-11-12T10:25:47;4.97;;;3.77;;
25327;SDS011;13279;51.300;12.394;2022-11-12T10:28:37;6.57;;;3.87;;
25327;SDS011;13279;51.300;12.394;2022-11-12T10:31:27;7.83;;;4.33;;
25327;SDS011;13279;51.300;12.394;2022-11-12T10:34:14;6.77;;;3.87;;
25327;SDS011;13279;51.300;12.394;2022-11-12T10:37:05;6.77;;;3.70;;
25327;SDS011;13279;51.300;12.394;2022-11-12T10:39:55;7.70;;;4.27;;
25327;SDS011;13279;51.300;12.394;2022-11-12T10:42:55;14.20;;;3.93;;
25327;SDS011;13279;51.300;12.394;2022-11-12T10:45:43;6.80;;;4.23;;
25327;SDS011;13279;51.300;12.394;2022-11-12T10:48:30;5.43;;;3.70;;
25327;SDS011;13279;51.300;12.394;2022-11-12T10:51:17;5.80;;;4.37;;
25327;SDS011;13279;51.300;12.394;2022-11-12T10:54:20;10.90;;;4.87;;
25327;SDS011;13279;51.300;12.394;2022-11-12T10:57:20;12.13;;;4.30;;
25327;SDS011;13279;51.300;12.394;2022-11-12T11:00:13;6.30;;;3.70;;
25327;SDS011;13279;51.300;12.394;2022-11-12T11:03:04;6.83;;;3.73;;
25327;SDS011;13279;51.300;12.394;2022-11-12T11:05:53;6.73;;;3.70;;
25327;SDS011;13279;51.300;12.394;2022-11-12T11:08:41;8.30;;;3.67;;
25327;SDS011;13279;51.300;12.394;2022-11-12T11:11:30;6.53;;;4.03;;
25327;SDS011;13279;51.300;12.394;2022-11-12T11:14:26;6.33;;;4.13;;
25327;SDS011;13279;51.300;12.394;2022-11-12T11:17:15;7.07;;;4.20;;
25327;SDS011;13279;51.300;12.394;2022-11-12T11:20:03;8.57;;;3.60;;
25327;SDS011;13279;51.300;12.394;2022-11-12T11:22:55;7.57;;;3.90;;
25327;SDS011;13279;51.300;12.394;2022-11-12T11:25:46;7.50;;;3.73;;
25327;SDS011;13279;51.300;12.394;2022-11-12T11:28:40;5.53;;;3.47;;
25327;SDS011;13279;51.300;12.394;2022-11-12T11:31:35;6.03;;;3.63;;
25327;SDS011;13279;51.300;12.394;2022-11-12T11:34:29;6.97;;;3.40;;
25327;SDS011;13279;51.300;12.394;2022-11-12T11:37:24;5.70;;;3.57;;
25327;SDS011;13279;51.300;12.394;2022-11-12T11:40:15;4.97;;;3.30;;
25327;SDS011;13279;51.300;12.394;2022-11-12T11:43:22;4.77;;;3.53;;
25327;SDS011;13279;51.300;12.394;2022-11-12T11:46:23;5.83;;;3.47;;
25327;SDS011;13279;51.300;12.394;2022-11-12T11:49:33;4.50;;;2.87;;
25327;SDS011;13279;51.300;12.394;2022-11-12T11:52:40;6.73;;;3.20;;
25327;SDS011;13279;51.300;12.394;2022-11-12T11:55:34;4.23;;;3.13;;
25327;SDS011;13279;51.300;12.394;2022-11-12T11:58:36;6.00;;;2.87;;
25327;SDS011;13279;51.300;12.394;2022-11-12T12:01:36;9.93;;;2.87;;
25327;SDS011;13279;51.300;12.394;2022-11-12T12:04:34;5.27;;;2.87;;
25327;SDS011;13279;51.300;12.394;2022-11-12T12:07:29;5.10;;;2.70;;
25327;SDS011;13279;51.300;12.394;2022-11-12T12:10:23;3.33;;;2.80;;
25327;SDS011;13279;51.300;12.394;2022-11-12T12:13:15;5.70;;;2.40;;
25327;SDS011;13279;51.300;12.394;2022-11-12T12:19:31;7.17;;;2.50;;
25327;SDS011;13279;51.300;12.394;2022-11-12T12:22:33;3.93;;;2.80;;
25327;SDS011;13279;51.300;12.394;2022-11-12T12:25:24;5.60;;;2.23;;
25327;SDS011;13279;51.300;12.394;2022-11-12T12:28:15;3.07;;;2.77;;
25327;SDS011;13279;51.300;12.394;2022-11-12T12:31:12;6.40;;;2.43;;
25327;SDS011;13279;51.300;12.394;2022-11-12T12:34:01;4.17;;;2.70;;
25327;SDS011;13279;51.300;12.394;2022-11-12T12:36:53;3.20;;;2.70;;
25327;SDS011;13279;51.300;12.394;2022-11-12T12:39:47;3.97;;;2.50;;
25327;SDS011;13279;51.300;12.394;2022-11-12T12:42:42;4.03;;;2.57;;
25327;SDS011;13279;51.300;12.394;2022-11-12T12:45:37;7.80;;;2.80;;
25327;SDS011;13279;51.300;12.394;2022-11-12T12:48:26;3.77;;;2.80;;
25327;SDS011;13279;51.300;12.394;2022-11-12T12:51:14;6.27;;;3.00;;
25327;SDS011;13279;51.300;12.394;2022-11-12T12:54:02;3.73;;;2.83;;
25327;SDS011;13279;51.300;12.394;2022-11-12T12:56:49;4.70;;;2.90;;
25327;SDS011;13279;51.300;12.394;2022-11-12T12:59:35;3.77;;;2.23;;
25327;SDS011;13279;51.300;12.394;2022-11-12T13:02:21;3.33;;;2.53;;
25327;SDS011;13279;51.300;12.394;2022-11-12T13:05:21;7.50;;;3.20;;
25327;SDS011;13279;51.300;12.394;2022-11-12T13:08:09;5.83;;;2.40;;
25327;SDS011;13279;51.300;12.394;2022-11-12T13:10:59;4.23;;;2.63;;
25327;SDS011;13279;51.300;12.394;2022-11-12T13:13:45;6.30;;;2.80;;
25327;SDS011;13279;51.300;12.394;2022-11-12T13:19:46;4.73;;;2.90;;
25327;SDS011;13279;51.300;12.394;2022-11-12T13:22:56;5.07;;;3.20;;
25327;SDS011;13279;51.300;12.394;2022-11-12T13:25:42;4.87;;;2.60;;
25327;SDS011;13279;51.300;12.394;2022-11-12T13:28:30;4.20;;;2.20;;
25327;SDS011;13279;51.300;12.394;2022-11-12T13:31:24;4.07;;;2.87;;
25327;SDS011;13279;51.300;12.394;2022-11-12T13:34:12;4.50;;;2.60;;
25327;SDS011;13279;51.300;12.394;2022-11-12T13:37:04;3.77;;;2.97;;
25327;SDS011;13279;51.300;12.394;2022-11-12T13:39:51;5.70;;;2.57;;
25327;SDS011;13279;51.300;12.394;2022-11-12T13:42:37;8.43;;;3.20;;
25327;SDS011;13279;51.300;12.394;2022-11-12T13:45:39;7.30;;;3.00;;
25327;SDS011;13279;51.300;12.394;2022-11-12T13:48:29;7.87;;;3.63;;
25327;SDS011;13279;51.300;12.394;2022-11-12T13:51:22;4.73;;;3.13;;
25327;SDS011;13279;51.300;12.394;2022-11-12T13:57:26;7.30;;;4.77;;
25327;SDS011;13279;51.300;12.394;2022-11-12T14:00:26;21.53;;;11.67;;
25327;SDS011;13279;51.300;12.394;2022-11-12T14:03:16;5.27;;;4.33;;
25327;SDS011;13279;51.300;12.394;2022-11-12T14:06:05;6.00;;;3.77;;
25327;SDS011;13279;51.300;12.394;2022-11-12T14:09:05;7.23;;;3.50;;
25327;SDS011;13279;51.300;12.394;2022-11-12T14:12:07;4.37;;;3.93;;
25327;SDS011;13279;51.300;12.394;2022-11-12T14:15:10;6.43;;;4.07;;
25327;SDS011;13279;51.300;12.394;2022-11-12T14:18:08;6.53;;;4.23;;
25327;SDS011;13279;51.300;12.394;2022-11-12T14:21:05;5.57;;;3.97;;
25327;SDS011;13279;51.300;12.394;2022-11-12T14:23:55;6.03;;;4.60;;
25327;SDS011;13279;51.300;12.394;2022-11-12T14:26:41;5.80;;;4.17;;
25327;SDS011;13279;51.300;12.394;2022-11-12T14:29:28;8.43;;;4.93;;
25327;SDS011;13279;51.300;12.394;2022-11-12T14:32:14;7.97;;;4.93;;
25327;SDS011;13279;51.300;12.394;2022-11-12T14:35:15;7.03;;;4.57;;
25327;SDS011;13279;51.300;12.394;2022-11-12T14:38:10;9.87;;;5.00;;
25327;SDS011;13279;51.300;12.394;2022-11-12T14:41:01;14.47;;;5.83;;
25327;SDS011;13279;51.300;12.394;2022-11-12T14:43:52;9.30;;;3.73;;
25327;SDS011;13279;51.300;12.394;2022-11-12T14:46:42;8.03;;;5.00;;
25327;SDS011;13279;51.300;12.394;2022-11-12T14:49:32;8.73;;;4.93;;
25327;SDS011;13279;51.300;12.394;2022-11-12T14:52:25;6.07;;;5.37;;
25327;SDS011;13279;51.300;12.394;2022-11-12T14:55:16;10.70;;;5.37;;
25327;SDS011;13279;51.300;12.394;2022-11-12T14:58:05;8.63;;;5.80;;
25327;SDS011;13279;51.300;12.394;2022-11-12T15:00:52;6.90;;;4.90;;
25327;SDS011;13279;51.300;12.394;2022-11-12T15:03:41;6.23;;;4.63;;
25327;SDS011;13279;51.300;12.394;2022-11-12T15:06:28;10.27;;;5.23;;
25327;SDS011;13279;51.300;12.394;2022-11-12T15:09:15;9.00;;;5.40;;
25327;SDS011;13279;51.300;12.394;2022-11-12T15:12:07;6.73;;;4.23;;
25327;SDS011;13279;51.300;12.394;2022-11-12T15:15:02;9.43;;;4.00;;
25327;SDS011;13279;51.300;12.394;2022-11-12T15:17:56;7.90;;;4.23;;
25327;SDS011;13279;51.300;12.394;2022-11-12T15:20:58;7.93;;;5.07;;
25327;SDS011;13279;51.300;12.394;2022-11-12T15:23:50;6.03;;;3.70;;
25327;SDS011;13279;51.300;12.394;2022-11-12T15:26:38;6.87;;;3.90;;
25327;SDS011;13279;51.300;12.394;2022-11-12T15:29:28;7.33;;;4.60;;
25327;SDS011;13279;51.300;12.394;2022-11-12T15:32:29;13.37;;;4.80;;
25327;SDS011;13279;51.300;12.394;2022-11-12T15:35:30;6.30;;;4.17;;
25327;SDS011;13279;51.300;12.394;2022-11-12T15:38:19;8.53;;;4.13;;
25327;SDS011;13279;51.300;12.394;2022-11-12T15:41:18;10.43;;;4.30;;
25327;SDS011;13279;51.300;12.394;2022-11-12T15:44:07;12.13;;;4.50;;
25327;SDS011;13279;51.300;12.394;2022-11-12T15:46:56;8.43;;;4.63;;
25327;SDS011;13279;51.300;12.394;2022-11-12T15:49:46;13.27;;;6.47;;
25327;SDS011;13279;51.300;12.394;2022-11-12T15:52:34;13.70;;;5.83;;
25327;SDS011;13279;51.300;12.394;2022-11-12T15:55:20;35.17;;;21.03;;
25327;SDS011;13279;51.300;12.394;2022-11-12T15:58:06;16.47;;;7.93;;
25327;SDS011;13279;51.300;12.394;2022-11-12T16:01:00;11.63;;;6.87;;
25327;SDS011;13279;51.300;12.394;2022-11-12T16:03:49;16.27;;;9.53;;
25327;SDS011;13279;51.300;12.394;2022-11-12T16:06:35;11.27;;;6.37;;
25327;SDS011;13279;51.300;12.394;2022-11-12T16:09:22;18.07;;;8.17;;
25327;SDS011;13279;51.300;12.394;2022-11-12T16:12:08;14.67;;;7.63;;
25327;SDS011;13279;51.300;12.394;2022-11-12T16:14:56;23.10;;;8.67;;
25327;SDS011;13279;51.300;12.394;2022-11-12T16:17:42;15.43;;;9.87;;
25327;SDS011;13279;51.300;12.394;2022-11-12T16:20:30;21.57;;;9.47;;
25327;SDS011;13279;51.300;12.394;2022-11-12T16:23:18;19.23;;;8.20;;
25327;SDS011;13279;51.300;12.394;2022-11-12T16:26:06;27.73;;;9.87;;
25327;SDS011;13279;51.300;12.394;2022-11-12T16:28:53;19.37;;;9.03;;
25327;SDS011;13279;51.300;12.394;2022-11-12T16:31:41;18.87;;;10.27;;
25327;SDS011;13279;51.300;12.394;2022-11-12T16:34:27;12.40;;;7.67;;
25327;SDS011;13279;51.300;12.394;2022-11-12T16:37:15;14.57;;;9.20;;
25327;SDS011;13279;51.300;12.394;2022-11-12T16:40:01;11.73;;;7.33;;
25327;SDS011;13279;51.300;12.394;2022-11-12T16:42:48;13.23;;;7.47;;
25327;SDS011;13279;51.300;12.394;2022-11-12T16:45:35;14.87;;;8.60;;
25327;SDS011;13279;51.300;12.394;2022-11-12T16:48:23;12.03;;;7.10;;
25327;SDS011;13279;51.300;12.394;2022-11-12T16:51:12;13.67;;;8.03;;
25327;SDS011;13279;51.300;12.394;2022-11-12T16:54:02;13.97;;;8.37;;